createdAt,value
2023-01-25T00:01:53.262Z,13.93
2023-01-25T00:04:22.570Z,13.45
2023-01-25T00:06:51.466Z,12.70
2023-01-25T00:09:19.853Z,14.43
2023-01-25T00:11:48.325Z,14.13
2023-01-25T00:14:17.348Z,13.65
2023-01-25T00:16:45.882Z,12.73
2023-01-25T00:19:15.559Z,15.30
2023-01-25T00:21:43.847Z,14.70
2023-01-25T00:24:14.341Z,14.70
2023-01-25T00:26:45.197Z,17.57
2023-01-25T00:29:14.408Z,14.82
2023-01-25T00:32:14.434Z,14.35
2023-01-25T00:34:48.997Z,15.63
2023-01-25T00:37:31.122Z,16.75
2023-01-25T00:39:59.441Z,17.70
2023-01-25T00:42:27.958Z,15.23
2023-01-25T00:44:56.201Z,15.95
2023-01-25T00:47:24.515Z,16.75
2023-01-25T00:49:54.684Z,15.00
2023-01-25T00:52:23.265Z,14.85
2023-01-25T00:54:51.557Z,14.13
2023-01-25T00:57:19.898Z,15.32
2023-01-25T00:59:48.331Z,15.80
2023-01-25T01:02:16.926Z,15.50
2023-01-25T01:04:46.062Z,14.90
2023-01-25T01:07:28.862Z,14.13
2023-01-25T01:09:57.081Z,19.20
2023-01-25T01:12:26.206Z,17.55
2023-01-25T01:14:54.675Z,16.52
2023-01-25T01:17:23.068Z,15.13
2023-01-25T01:19:51.329Z,14.90
2023-01-25T01:22:19.923Z,15.18
2023-01-25T01:24:50.461Z,15.82
2023-01-25T01:27:20.024Z,14.35
2023-01-25T01:29:48.544Z,14.25
2023-01-25T01:32:16.920Z,17.17
2023-01-25T01:34:45.551Z,15.80
2023-01-25T01:37:13.882Z,14.27
2023-01-25T01:39:42.344Z,15.00
2023-01-25T01:42:12.240Z,13.90
2023-01-25T01:44:46.902Z,16.13
2023-01-25T01:47:20.225Z,15.15
2023-01-25T01:49:54.101Z,15.73
2023-01-25T01:52:26.225Z,15.47
2023-01-25T01:54:57.704Z,19.07
2023-01-25T01:57:32.325Z,15.40
2023-01-25T02:00:05.184Z,15.55
2023-01-25T02:02:41.712Z,15.17
2023-01-25T02:05:23.414Z,17.23
2023-01-25T02:07:54.797Z,18.35
2023-01-25T02:10:26.597Z,17.20
2023-01-25T02:12:59.439Z,15.35
2023-01-25T02:15:30.320Z,18.98
2023-01-25T02:17:58.768Z,16.58
2023-01-25T02:20:35.415Z,18.00
2023-01-25T02:23:10.993Z,17.45
2023-01-25T02:25:41.369Z,18.13
2023-01-25T02:28:16.665Z,20.08
2023-01-25T02:30:46.324Z,19.80
2023-01-25T02:33:14.803Z,17.33
2023-01-25T02:35:46.481Z,18.77
2023-01-25T02:38:19.132Z,19.42
2023-01-25T02:40:54.022Z,19.33
2023-01-25T02:43:24.576Z,17.70
2023-01-25T02:46:00.736Z,18.88
2023-01-25T02:48:29.135Z,18.25
2023-01-25T02:50:57.423Z,23.05
2023-01-25T02:53:25.879Z,22.00
2023-01-25T02:55:55.793Z,19.83
2023-01-25T02:58:25.332Z,18.50
2023-01-25T03:00:54.221Z,19.95
2023-01-25T03:03:22.983Z,22.90
2023-01-25T03:05:51.362Z,19.20
2023-01-25T03:08:19.601Z,19.80
2023-01-25T03:10:50.870Z,19.45
2023-01-25T03:13:20.774Z,19.90
2023-01-25T03:15:49.860Z,19.40
2023-01-25T03:18:18.919Z,22.20
2023-01-25T03:20:48.452Z,19.37
2023-01-25T03:23:16.937Z,21.02
2023-01-25T03:25:45.209Z,17.40
2023-01-25T03:28:18.182Z,19.42
2023-01-25T03:30:54.224Z,20.08
2023-01-25T03:33:22.602Z,20.23
2023-01-25T03:35:53.810Z,19.90
2023-01-25T03:38:22.788Z,17.00
2023-01-25T03:40:51.449Z,19.88
2023-01-25T03:43:20.110Z,18.23
2023-01-25T03:45:57.177Z,19.50
2023-01-25T03:48:26.434Z,20.50
2023-01-25T03:50:56.904Z,16.35
2023-01-25T03:53:30.302Z,20.45
2023-01-25T03:56:09.276Z,17.70
2023-01-25T03:58:39.320Z,17.10
2023-01-25T04:01:11.170Z,17.80
2023-01-25T04:03:41.471Z,20.20
2023-01-25T04:06:10.638Z,18.88
2023-01-25T04:08:40.311Z,16.17
2023-01-25T04:11:10.575Z,21.27
2023-01-25T04:13:39.842Z,19.20
2023-01-25T04:16:13.015Z,21.77
2023-01-25T04:18:59.557Z,20.52
2023-01-25T04:21:29.496Z,18.13
2023-01-25T04:23:57.876Z,20.75
2023-01-25T04:26:26.524Z,19.67
2023-01-25T04:28:59.530Z,19.33
2023-01-25T04:31:30.016Z,19.90
2023-01-25T04:33:59.595Z,20.33
2023-01-25T04:36:27.927Z,20.33
2023-01-25T04:38:57.096Z,19.25
2023-01-25T04:41:29.150Z,22.17
2023-01-25T04:43:58.358Z,23.75
2023-01-25T04:46:27.048Z,23.42
2023-01-25T04:48:57.401Z,17.83
2023-01-25T04:51:25.654Z,19.48
2023-01-25T04:53:54.319Z,20.15
2023-01-25T04:56:22.595Z,19.47
2023-01-25T04:58:56.866Z,19.43
2023-01-25T05:01:25.096Z,20.33
2023-01-25T05:03:54.174Z,23.57
2023-01-25T05:06:35.442Z,19.98
2023-01-25T05:09:04.038Z,22.02
2023-01-25T05:11:33.884Z,22.17
2023-01-25T05:14:22.480Z,21.58
2023-01-25T05:16:51.585Z,22.75
2023-01-25T05:19:20.165Z,21.30
2023-01-25T05:22:01.201Z,23.27
2023-01-25T05:24:35.569Z,22.58
2023-01-25T05:27:07.875Z,21.73
2023-01-25T05:29:54.805Z,25.20
2023-01-25T05:32:50.370Z,20.58
2023-01-25T05:35:19.461Z,20.50
2023-01-25T05:37:50.870Z,20.83
2023-01-25T05:40:23.972Z,21.45
2023-01-25T05:42:56.232Z,21.48
2023-01-25T05:45:26.360Z,22.38
2023-01-25T05:47:57.388Z,24.63
2023-01-25T05:50:27.064Z,21.03
2023-01-25T05:53:12.989Z,21.45
2023-01-25T05:55:41.644Z,23.48
2023-01-25T05:58:14.647Z,23.90
2023-01-25T06:00:43.464Z,23.75
2023-01-25T06:03:18.088Z,22.67
2023-01-25T06:05:47.195Z,23.27
2023-01-25T06:08:16.917Z,24.38
2023-01-25T06:10:51.719Z,36.40
2023-01-25T06:13:22.213Z,47.97
2023-01-25T06:15:54.221Z,38.00
2023-01-25T06:18:54.835Z,45.00
2023-01-25T06:21:36.989Z,36.70
2023-01-25T06:24:07.351Z,25.70
2023-01-25T06:26:35.761Z,24.92
2023-01-25T06:29:06.975Z,26.08
2023-01-25T06:31:35.885Z,24.13
2023-01-25T06:34:06.314Z,22.65
2023-01-25T06:36:35.575Z,25.30
2023-01-25T06:39:04.156Z,24.95
2023-01-25T06:41:33.881Z,26.73
2023-01-25T06:44:02.097Z,25.60
2023-01-25T06:46:33.477Z,29.42
2023-01-25T06:49:01.883Z,29.30
2023-01-25T06:51:30.900Z,23.80
2023-01-25T06:54:03.111Z,23.42
2023-01-25T06:56:33.709Z,24.73
2023-01-25T06:59:01.978Z,27.60
2023-01-25T07:01:30.636Z,33.90
2023-01-25T07:04:00.349Z,36.20
2023-01-25T07:06:34.583Z,29.65
2023-01-25T07:09:07.313Z,45.47
2023-01-25T07:11:37.734Z,59.63
2023-01-25T07:14:06.813Z,66.35
2023-01-25T07:16:38.547Z,62.90
2023-01-25T07:19:07.765Z,50.67
2023-01-25T07:21:36.177Z,52.63
2023-01-25T07:24:06.032Z,59.70
2023-01-25T07:26:35.972Z,56.50
2023-01-25T07:29:04.575Z,72.82
2023-01-25T07:31:33.141Z,67.70
2023-01-25T07:34:01.347Z,62.10
2023-01-25T07:36:29.993Z,62.63
2023-01-25T07:38:59.493Z,67.88
2023-01-25T07:41:28.708Z,65.97
2023-01-25T07:43:58.315Z,61.95
2023-01-25T07:46:50.031Z,57.13
2023-01-25T07:49:18.471Z,55.00
2023-01-25T07:51:46.685Z,44.75
2023-01-25T07:54:15.132Z,54.90
2023-01-25T07:56:43.400Z,57.75
2023-01-25T07:59:14.278Z,55.83
2023-01-25T08:01:42.481Z,60.75
2023-01-25T08:04:11.061Z,56.38
2023-01-25T08:06:40.214Z,57.28
2023-01-25T08:09:12.371Z,46.58
2023-01-25T08:11:40.777Z,38.03
2023-01-25T08:14:09.220Z,29.13
2023-01-25T08:16:38.949Z,35.25
2023-01-25T08:19:07.593Z,44.03
2023-01-25T08:21:36.525Z,47.95
2023-01-25T08:24:07.484Z,43.60
2023-01-25T08:26:36.767Z,46.67
2023-01-25T08:29:06.040Z,48.17
2023-01-25T08:31:36.047Z,41.78
2023-01-25T08:34:06.906Z,36.17
2023-01-25T08:36:35.648Z,44.78
2023-01-25T08:39:07.169Z,45.15
2023-01-25T08:41:36.579Z,37.65
2023-01-25T08:44:05.520Z,37.22
2023-01-25T08:46:34.765Z,40.50
2023-01-25T08:49:05.411Z,45.58
2023-01-25T08:51:34.405Z,41.33
2023-01-25T08:54:08.642Z,43.80
2023-01-25T08:56:38.774Z,51.25
2023-01-25T08:59:07.279Z,43.90
2023-01-25T09:01:35.591Z,41.83
2023-01-25T09:04:05.634Z,43.53
2023-01-25T09:06:34.916Z,39.53
2023-01-25T09:09:05.401Z,30.98
2023-01-25T09:11:37.091Z,39.92
2023-01-25T09:14:06.251Z,48.03
2023-01-25T09:16:34.571Z,44.95
2023-01-25T09:19:06.351Z,44.70
2023-01-25T09:21:37.404Z,44.67
2023-01-25T09:24:07.706Z,40.58
2023-01-25T09:26:38.313Z,37.60
2023-01-25T09:29:08.705Z,41.92
2023-01-25T09:31:40.906Z,45.22
2023-01-25T09:34:26.973Z,37.57
2023-01-25T09:36:55.331Z,33.90
2023-01-25T09:39:23.508Z,31.73
2023-01-25T09:42:15.043Z,33.78
2023-01-25T09:45:15.261Z,39.00
2023-01-25T09:47:50.903Z,32.67
2023-01-25T09:50:43.996Z,32.95
2023-01-25T09:53:29.237Z,32.08
2023-01-25T09:56:00.665Z,30.92
2023-01-25T09:58:34.767Z,35.70
2023-01-25T10:01:40.833Z,38.40
2023-01-25T10:04:16.007Z,44.22
2023-01-25T10:06:59.654Z,50.90
2023-01-25T10:09:43.829Z,53.92
2023-01-25T10:12:17.612Z,33.40
2023-01-25T10:14:45.890Z,32.70
2023-01-25T10:17:21.636Z,33.80
2023-01-25T10:20:02.299Z,35.22
2023-01-25T10:22:39.048Z,40.85
2023-01-25T10:25:30.529Z,39.17
2023-01-25T10:28:30.163Z,34.28
2023-01-25T10:31:03.135Z,35.85
2023-01-25T10:33:36.312Z,49.93
2023-01-25T10:36:06.978Z,43.63
2023-01-25T10:38:42.415Z,31.95
2023-01-25T10:41:16.631Z,32.95
2023-01-25T10:43:44.996Z,32.75
2023-01-25T10:46:22.734Z,31.75
2023-01-25T10:48:51.227Z,33.08
2023-01-25T10:51:33.688Z,35.63
2023-01-25T10:54:05.945Z,30.60
2023-01-25T10:56:36.772Z,30.52
2023-01-25T10:59:16.335Z,38.03
2023-01-25T11:01:46.252Z,42.63
2023-01-25T11:04:30.675Z,42.67
2023-01-25T11:06:59.867Z,42.05
2023-01-25T11:09:35.658Z,40.35
2023-01-25T11:12:07.620Z,40.22
2023-01-25T11:14:35.880Z,40.08
2023-01-25T11:17:07.360Z,37.08
2023-01-25T11:19:37.443Z,41.83
2023-01-25T11:22:07.209Z,34.50
2023-01-25T11:24:37.867Z,40.47
2023-01-25T11:27:22.744Z,38.53
2023-01-25T11:30:12.823Z,34.60
2023-01-25T11:32:42.025Z,40.88
2023-01-25T11:35:19.250Z,40.17
2023-01-25T11:38:04.543Z,42.17
2023-01-25T11:40:40.815Z,42.40
2023-01-25T11:43:28.400Z,49.28
2023-01-25T11:46:12.631Z,43.25
2023-01-25T11:48:55.628Z,46.58
2023-01-25T11:51:28.570Z,41.33
2023-01-25T11:54:20.643Z,54.28
2023-01-25T11:56:59.456Z,50.10
2023-01-25T11:59:50.219Z,53.80
2023-01-25T12:02:40.990Z,59.33
2023-01-25T12:05:29.784Z,54.15
2023-01-25T12:08:11.775Z,55.67
2023-01-25T12:10:49.164Z,44.47
2023-01-25T12:13:25.467Z,44.00
2023-01-25T12:16:05.262Z,43.28
2023-01-25T12:19:01.095Z,43.33
2023-01-25T12:21:51.564Z,42.45
2023-01-25T12:24:37.531Z,43.95
2023-01-25T12:27:21.119Z,44.85
2023-01-25T12:29:57.281Z,40.57
2023-01-25T12:32:29.693Z,36.77
2023-01-25T12:35:23.632Z,38.92
2023-01-25T12:37:56.731Z,35.47
2023-01-25T12:40:33.916Z,37.83
2023-01-25T12:43:02.689Z,35.33
2023-01-25T12:45:36.201Z,33.50
2023-01-25T12:48:15.259Z,37.67
2023-01-25T12:50:50.158Z,38.83
2023-01-25T12:53:22.709Z,32.80
2023-01-25T12:55:51.822Z,36.05
2023-01-25T12:58:37.773Z,41.90
2023-01-25T13:01:17.164Z,40.53
2023-01-25T13:04:01.770Z,39.83
2023-01-25T13:06:38.446Z,35.75
2023-01-25T13:09:15.255Z,39.58
2023-01-25T13:11:46.217Z,42.95
2023-01-25T13:14:28.340Z,39.85
2023-01-25T13:17:13.613Z,39.00
2023-01-25T13:19:43.332Z,37.20
2023-01-25T13:22:12.673Z,46.00
2023-01-25T13:25:11.281Z,43.78
2023-01-25T13:27:39.707Z,43.20
2023-01-25T13:30:32.171Z,46.20
2023-01-25T13:33:05.718Z,42.03
2023-01-25T13:35:40.019Z,35.55
2023-01-25T13:38:26.546Z,30.70
2023-01-25T13:41:15.430Z,32.08
2023-01-25T13:43:49.374Z,33.15
2023-01-25T13:46:20.664Z,32.35
2023-01-25T13:48:58.988Z,35.50
2023-01-25T13:51:32.037Z,34.58
2023-01-25T13:54:01.364Z,32.08
2023-01-25T13:56:35.010Z,34.03
2023-01-25T13:59:03.700Z,32.47
2023-01-25T14:01:34.806Z,31.60
2023-01-25T14:04:06.455Z,36.40
2023-01-25T14:06:38.174Z,36.75
2023-01-25T14:09:16.902Z,36.83
2023-01-25T14:11:47.735Z,37.13
2023-01-25T14:14:20.564Z,41.58
2023-01-25T14:17:01.582Z,28.25
2023-01-25T14:19:33.512Z,32.58
2023-01-25T14:22:20.161Z,33.20
2023-01-25T14:25:13.684Z,28.05
2023-01-25T14:27:47.670Z,29.13
2023-01-25T14:30:22.512Z,26.55
2023-01-25T14:32:52.165Z,26.30
2023-01-25T14:36:11.588Z,24.67
2023-01-25T14:38:37.046Z,27.90
2023-01-25T14:41:13.378Z,30.20
2023-01-25T14:43:45.357Z,26.52
2023-01-25T14:46:21.303Z,26.98
2023-01-25T14:48:49.737Z,29.60
2023-01-25T14:51:26.611Z,31.50
2023-01-25T14:53:59.951Z,27.35
2023-01-25T14:56:41.685Z,29.08
2023-01-25T14:59:24.287Z,30.10
2023-01-25T15:01:54.898Z,28.80
2023-01-25T15:04:23.548Z,27.98
2023-01-25T15:06:55.188Z,30.63
2023-01-25T15:09:37.700Z,33.67
2023-01-25T15:12:27.315Z,29.58
2023-01-25T15:14:57.600Z,30.08
2023-01-25T15:17:40.542Z,31.48
2023-01-25T15:20:28.916Z,32.95
2023-01-25T15:23:00.684Z,31.33
2023-01-25T15:25:29.197Z,32.22
2023-01-25T15:27:57.601Z,42.17
2023-01-25T15:30:25.895Z,35.27
2023-01-25T15:32:54.275Z,32.88
2023-01-25T15:35:23.508Z,37.33
2023-01-25T15:37:51.885Z,33.25
2023-01-25T15:40:21.542Z,37.33
2023-01-25T15:42:49.912Z,35.28
2023-01-25T15:45:18.232Z,40.53
2023-01-25T15:47:46.469Z,43.45
2023-01-25T15:50:19.671Z,43.88
2023-01-25T15:52:48.815Z,37.30
2023-01-25T15:55:17.532Z,37.47
2023-01-25T15:57:47.204Z,37.33
2023-01-25T16:00:21.464Z,38.13
2023-01-25T16:02:49.990Z,38.88
2023-01-25T16:05:18.444Z,38.67
2023-01-25T16:07:47.071Z,40.20
2023-01-25T16:10:24.517Z,37.33
2023-01-25T16:12:54.214Z,37.70
2023-01-25T16:15:22.637Z,37.47
2023-01-25T16:17:50.858Z,36.42
2023-01-25T16:20:21.010Z,38.50
2023-01-25T16:22:49.375Z,35.70
2023-01-25T16:25:17.937Z,37.83
2023-01-25T16:27:46.249Z,40.35
2023-01-25T16:30:23.802Z,40.47
2023-01-25T16:32:52.872Z,36.30
2023-01-25T16:35:21.920Z,41.60
2023-01-25T16:37:51.859Z,44.55
2023-01-25T16:40:24.576Z,39.03
2023-01-25T16:42:53.122Z,37.10
2023-01-25T16:45:24.175Z,38.65
2023-01-25T16:47:52.594Z,36.03
2023-01-25T16:50:22.637Z,43.77
2023-01-25T16:52:51.589Z,43.53
2023-01-25T16:55:21.000Z,41.30
2023-01-25T16:57:52.468Z,45.15
2023-01-25T17:00:23.043Z,41.70
2023-01-25T17:02:58.987Z,46.65
2023-01-25T17:05:32.009Z,47.20
2023-01-25T17:08:00.558Z,49.20
2023-01-25T17:10:33.031Z,87.28
2023-01-25T17:13:01.317Z,81.20
2023-01-25T17:15:31.036Z,119.93
2023-01-25T17:17:59.457Z,240.10
2023-01-25T17:20:27.851Z,159.52
2023-01-25T17:22:56.062Z,217.02
2023-01-25T17:25:25.740Z,328.63
2023-01-25T17:27:54.019Z,93.38
2023-01-25T17:30:22.357Z,80.20
2023-01-25T17:32:52.281Z,56.78
2023-01-25T17:35:20.625Z,56.17
2023-01-25T17:37:49.064Z,57.15
2023-01-25T17:40:17.759Z,52.50
2023-01-25T17:42:45.985Z,49.53
2023-01-25T17:45:14.143Z,55.40
2023-01-25T17:47:42.645Z,54.00
2023-01-25T17:50:14.236Z,55.70
2023-01-25T17:52:42.540Z,55.78
2023-01-25T17:55:11.318Z,61.33
2023-01-25T17:57:39.710Z,58.75
2023-01-25T18:00:12.090Z,55.78
2023-01-25T18:02:46.224Z,54.10
2023-01-25T18:05:16.717Z,58.80
2023-01-25T18:07:45.393Z,61.38
2023-01-25T18:10:14.147Z,54.75
2023-01-25T18:12:43.804Z,57.83
2023-01-25T18:15:13.295Z,60.60
2023-01-25T18:17:41.598Z,68.38
2023-01-25T18:20:11.785Z,62.50
2023-01-25T18:22:42.218Z,61.20
2023-01-25T18:25:31.191Z,56.25
2023-01-25T18:27:59.747Z,67.57
2023-01-25T18:30:36.956Z,62.03
2023-01-25T18:33:06.268Z,67.50
2023-01-25T18:35:35.161Z,71.32
2023-01-25T18:38:04.895Z,64.65
2023-01-25T18:40:33.461Z,59.50
2023-01-25T18:43:01.778Z,70.90
2023-01-25T18:45:30.336Z,63.63
2023-01-25T18:47:59.175Z,70.33
2023-01-25T18:50:27.749Z,70.43
2023-01-25T18:52:56.074Z,68.22
2023-01-25T18:55:27.705Z,63.95
2023-01-25T18:57:57.398Z,65.35
2023-01-25T19:00:25.819Z,66.25
2023-01-25T19:02:54.141Z,59.00
2023-01-25T19:05:22.860Z,64.93
2023-01-25T19:07:51.365Z,66.80
2023-01-25T19:10:20.514Z,63.60
2023-01-25T19:12:50.162Z,58.13
2023-01-25T19:15:18.459Z,59.77
2023-01-25T19:17:46.777Z,62.13
2023-01-25T19:20:15.225Z,64.47
2023-01-25T19:22:43.538Z,63.60
2023-01-25T19:25:12.144Z,60.72
2023-01-25T19:27:40.798Z,59.17
2023-01-25T19:30:12.267Z,61.55
2023-01-25T19:32:40.754Z,55.47
2023-01-25T19:35:09.808Z,69.93
2023-01-25T19:37:38.464Z,61.25
2023-01-25T19:40:07.985Z,58.95
2023-01-25T19:42:36.542Z,55.67
2023-01-25T19:45:05.437Z,58.40
2023-01-25T19:47:35.558Z,53.47
2023-01-25T19:50:03.992Z,57.90
2023-01-25T19:52:32.686Z,55.55
2023-01-25T19:55:01.083Z,73.75
2023-01-25T19:57:29.506Z,52.05
2023-01-25T19:59:57.809Z,54.97
2023-01-25T20:02:26.165Z,62.27
2023-01-25T20:04:56.059Z,54.90
2023-01-25T20:07:25.339Z,61.15
2023-01-25T20:09:53.537Z,55.03
2023-01-25T20:12:21.972Z,52.23
2023-01-25T20:14:51.196Z,50.13
2023-01-25T20:17:19.869Z,49.85
2023-01-25T20:19:50.400Z,52.42
2023-01-25T20:22:20.091Z,56.77
2023-01-25T20:24:48.493Z,50.53
2023-01-25T20:27:16.841Z,48.35
2023-01-25T20:29:45.379Z,61.42
2023-01-25T20:32:30.666Z,54.22
2023-01-25T20:35:03.559Z,52.35
2023-01-25T20:37:33.277Z,52.45
2023-01-25T20:40:01.702Z,54.22
2023-01-25T20:42:29.936Z,56.80
2023-01-25T20:44:58.408Z,60.13
2023-01-25T20:47:26.726Z,58.47
2023-01-25T20:49:54.973Z,58.90
2023-01-25T20:52:23.301Z,58.45
2023-01-25T20:54:53.945Z,63.38
2023-01-25T20:57:22.237Z,63.88
2023-01-25T20:59:54.672Z,61.05
2023-01-25T21:02:23.100Z,63.50
2023-01-25T21:04:51.522Z,60.83
2023-01-25T21:07:19.827Z,65.03
2023-01-25T21:09:48.133Z,60.22
2023-01-25T21:12:17.724Z,66.05
2023-01-25T21:14:46.075Z,62.13
2023-01-25T21:17:14.358Z,55.80
2023-01-25T21:19:42.696Z,63.08
2023-01-25T21:22:11.291Z,62.55
2023-01-25T21:24:39.557Z,69.10
2023-01-25T21:27:08.834Z,66.90
2023-01-25T21:29:38.547Z,61.55
2023-01-25T21:32:07.015Z,66.68
2023-01-25T21:34:35.522Z,64.43
2023-01-25T21:37:03.848Z,65.25
2023-01-25T21:39:32.117Z,59.40
2023-01-25T21:42:00.466Z,58.20
2023-01-25T21:44:46.196Z,58.60
2023-01-25T21:47:29.287Z,59.00
2023-01-25T21:50:16.458Z,58.53
2023-01-25T21:52:44.884Z,60.40
2023-01-25T21:55:13.286Z,59.58
2023-01-25T21:57:47.029Z,57.53
2023-01-25T22:00:17.169Z,57.90
2023-01-25T22:02:47.426Z,53.17
2023-01-25T22:05:15.799Z,67.10
2023-01-25T22:07:44.184Z,53.38
2023-01-25T22:10:13.380Z,58.88
2023-01-25T22:12:41.874Z,65.05
2023-01-25T22:15:10.675Z,58.17
2023-01-25T22:17:39.083Z,56.58
2023-01-25T22:20:10.693Z,54.92
2023-01-25T22:22:40.348Z,55.80
2023-01-25T22:25:09.272Z,56.38
2023-01-25T22:27:50.338Z,58.25
2023-01-25T22:30:18.705Z,57.85
2023-01-25T22:32:46.994Z,56.75
2023-01-25T22:35:16.753Z,57.42
2023-01-25T22:37:44.995Z,51.42
2023-01-25T22:40:14.337Z,53.58
2023-01-25T22:42:42.575Z,56.20
2023-01-25T22:45:11.324Z,53.70
2023-01-25T22:47:42.029Z,47.30
2023-01-25T22:50:12.095Z,56.58
2023-01-25T22:52:42.166Z,56.90
2023-01-25T22:55:10.935Z,57.97
2023-01-25T22:57:39.304Z,51.53
2023-01-25T23:00:09.332Z,58.47
2023-01-25T23:02:38.171Z,61.90
2023-01-25T23:05:07.485Z,53.72
2023-01-25T23:07:35.803Z,51.00
2023-01-25T23:10:06.250Z,52.17
2023-01-25T23:12:34.588Z,57.50
2023-01-25T23:15:07.131Z,57.83
2023-01-25T23:17:52.961Z,52.07
2023-01-25T23:20:21.358Z,55.28
2023-01-25T23:22:51.660Z,60.15
2023-01-25T23:25:21.456Z,55.67
2023-01-25T23:27:50.419Z,55.92
2023-01-25T23:30:19.133Z,54.60
2023-01-25T23:32:49.794Z,58.23
2023-01-25T23:35:19.246Z,58.92
2023-01-25T23:37:48.571Z,56.05
2023-01-25T23:40:17.628Z,54.38
2023-01-25T23:42:48.039Z,56.13
2023-01-25T23:45:16.501Z,60.27
2023-01-25T23:47:44.871Z,56.45
2023-01-25T23:50:13.737Z,62.13
2023-01-25T23:52:43.190Z,61.20
2023-01-25T23:55:12.137Z,60.92
2023-01-25T23:57:40.586Z,54.05
